Time;durP1;ratioP1;P1;durP2;ratioP2;P2;SDS_P1;SDS_P2;PMS_P1;PMS_P2;Temp;Humidity;BMP_temperature;BMP_pressure;BME280_temperature;BME280_humidity;BME280_pressure;Samples;Min_cycle;Max_cycle;Signal;HPM_P1;HPM_P2
2021/04/15 00:01:48;;;;;;;;;;;;;;;-3.17;100.00;94509.59;5096376;28;19924;-76
2021/04/15 00:04:14;;;;;;;;;;;;;;;-3.19;100.00;94506.31;5096549;28;20039;-76
2021/04/15 00:06:40;;;;;;;;;;;;;;;-3.07;100.00;94502.16;5096590;28;19964;-75
2021/04/15 00:09:07;;;;;;;;;;;;;;;-3.02;100.00;94502.69;5096345;28;19925;-76
2021/04/15 00:11:33;;;;;;;;;;;;;;;-2.94;100.00;94501.38;5096361;28;20301;-76
2021/04/15 00:14:00;;;;;;;;;;;;;;;-2.84;100.00;94499.84;5096273;28;19924;-76
2021/04/15 00:16:28;;;;;;;;;;;;;;;-2.92;100.00;94494.41;5096187;28;20001;-76
2021/04/15 00:18:54;;;;;;;;;;;;;;;-2.83;100.00;94493.81;5095573;28;19932;-76
2021/04/15 00:21:19;;;;;;;;;;;;;;;-2.98;100.00;94499.03;5096237;28;19924;-76
2021/04/15 00:23:46;;;;;;;;;;;;;;;-2.99;100.00;94494.81;5096109;28;19924;-76
2021/04/15 00:26:12;;;;;;;;;;;;;;;-3.05;100.00;94495.25;5095944;28;20471;-76
2021/04/15 00:28:38;;;;;;;;;;;;;;;-3.11;100.00;94498.19;5095970;28;19924;-76
2021/04/15 00:31:04;;;;;;;;;;;;;;;-3.24;100.00;94493.03;5095767;28;19947;-77
2021/04/15 00:33:31;;;;;;;;;;;;;;;-3.35;100.00;94495.47;5096065;28;20267;-76
2021/04/15 00:35:57;;;;;;;;;;;;;;;-3.40;100.00;94488.13;5095923;28;19924;-76
2021/04/15 00:38:23;;;;;;;;;;;;;;;-3.36;100.00;94487.00;5095811;28;20302;-76
2021/04/15 00:40:50;;;;;;;;;;;;;;;-3.35;100.00;94483.53;5095422;28;19924;-76
2021/04/15 00:43:16;;;;;;;;;;;;;;;-3.40;100.00;94480.47;5095608;28;19924;-76
2021/04/15 00:45:43;;;;;;;;;;;;;;;-3.48;100.00;94477.59;5095468;28;19931;-76
2021/04/15 00:48:13;;;;;;;;;;;;;;;-3.53;100.00;94475.31;5095349;28;19924;-76
2021/04/15 00:50:42;;;;;;;;;;;;;;;-3.55;100.00;94479.72;5095697;28;19924;-76
2021/04/15 00:53:12;;;;;;;;;;;;;;;-3.49;100.00;94478.50;5095612;28;19931;-76
2021/04/15 00:55:38;;;;;;;;;;;;;;;-3.65;100.00;94473.53;5095408;28;20405;-76
2021/04/15 00:58:04;;;;;;;;;;;;;;;-3.73;100.00;94478.28;5095243;28;19928;-76
2021/04/15 01:00:30;;;;;;;;;;;;;;;-3.63;100.00;94468.34;5095462;28;20310;-75
2021/04/15 01:02:57;;;;;;;;;;;;;;;-3.60;100.00;94475.78;5095487;28;19924;-76
2021/04/15 01:05:25;;;;;;;;;;;;;;;-3.66;100.00;94468.53;5095174;28;19924;-76
2021/04/15 01:07:52;;;;;;;;;;;;;;;-3.54;100.00;94462.66;5095324;28;19928;-76
2021/04/15 01:10:20;;;;;;;;;;;;;;;-3.65;100.00;94462.50;5094999;28;19978;-76
2021/04/15 01:13:05;;;;;;;;;;;;;;;-3.73;100.00;94465.53;5094988;28;20428;-76
2021/04/15 01:15:37;;;;;;;;;;;;;;;-3.77;100.00;94462.38;5094898;28;19924;-76
2021/04/15 01:18:05;;;;;;;;;;;;;;;-3.70;100.00;94464.53;5095115;28;19924;-76
2021/04/15 01:20:58;;;;;;;;;;;;;;;-3.67;100.00;94464.34;5095012;28;19924;-75
2021/04/15 01:23:29;;;;;;;;;;;;;;;-3.70;100.00;94462.00;5094794;28;19924;-76
2021/04/15 01:26:24;;;;;;;;;;;;;;;-3.74;100.00;94462.19;5095080;28;20305;-76
2021/04/15 01:29:00;;;;;;;;;;;;;;;-3.89;100.00;94463.16;5032247;28;19932;-76
2021/04/15 01:31:33;;;;;;;;;;;;;;;-3.94;100.00;94460.06;5083551;28;19928;-76
2021/04/15 01:34:03;;;;;;;;;;;;;;;-4.01;100.00;94462.19;5094442;28;19927;-76
2021/04/15 01:36:31;;;;;;;;;;;;;;;-3.97;100.00;94466.16;5094752;28;20049;-77
2021/04/15 01:39:02;;;;;;;;;;;;;;;-3.96;100.00;94461.91;5094646;28;19930;-76
2021/04/15 01:41:30;;;;;;;;;;;;;;;-3.93;100.00;94462.53;5094786;28;19969;-76
2021/04/15 01:43:59;;;;;;;;;;;;;;;-3.84;100.00;94461.13;5094526;28;19924;-76
2021/04/15 01:46:28;;;;;;;;;;;;;;;-3.91;100.00;94465.00;5094137;28;20440;-76
2021/04/15 01:48:54;;;;;;;;;;;;;;;-4.01;100.00;94462.19;5094375;28;19924;-76
2021/04/15 01:51:23;;;;;;;;;;;;;;;-4.00;100.00;94461.25;5094303;28;19924;-76
2021/04/15 01:53:51;;;;;;;;;;;;;;;-4.04;100.00;94464.13;5093691;28;19924;-77
2021/04/15 01:56:20;;;;;;;;;;;;;;;-4.12;100.00;94467.94;5094223;28;20341;-76
2021/04/15 01:58:49;;;;;;;;;;;;;;;-4.18;100.00;94462.41;5094052;28;20299;-76
2021/04/15 02:01:18;;;;;;;;;;;;;;;-4.19;100.00;94464.13;5094189;28;19928;-76
2021/04/15 02:03:47;;;;;;;;;;;;;;;-4.18;100.00;94463.22;5094026;28;19924;-76
2021/04/15 02:06:15;;;;;;;;;;;;;;;-4.29;100.00;94465.63;5094179;28;19932;-77
2021/04/15 02:08:43;;;;;;;;;;;;;;;-4.51;100.00;94459.28;5094006;28;19931;-76
2021/04/15 02:11:12;;;;;;;;;;;;;;;-4.56;100.00;94458.72;5093923;28;19971;-76
2021/04/15 02:13:41;;;;;;;;;;;;;;;-4.68;100.00;94460.28;5094108;28;19924;-77
2021/04/15 02:16:09;;;;;;;;;;;;;;;-4.77;100.00;94460.81;5094033;28;19931;-77
2021/04/15 02:18:36;;;;;;;;;;;;;;;-4.85;100.00;94458.72;5093932;28;19925;-75
2021/04/15 02:21:06;;;;;;;;;;;;;;;-4.81;100.00;94459.38;5093885;28;19981;-75
2021/04/15 02:23:34;;;;;;;;;;;;;;;-4.69;100.00;94450.19;5093656;28;19927;-76
2021/04/15 02:26:02;;;;;;;;;;;;;;;-4.71;100.00;94463.00;5093498;28;19931;-76
2021/04/15 02:28:30;;;;;;;;;;;;;;;-4.63;100.00;94454.88;5093754;28;19978;-76
2021/04/15 02:31:02;;;;;;;;;;;;;;;-4.62;100.00;94454.00;5093562;28;19932;-76
2021/04/15 02:33:30;;;;;;;;;;;;;;;-4.51;100.00;94459.28;5093742;28;19924;-76
2021/04/15 02:35:59;;;;;;;;;;;;;;;-4.62;100.00;94454.00;5093693;28;19970;-76
2021/04/15 02:38:31;;;;;;;;;;;;;;;-4.78;100.00;94455.81;5093528;28;20023;-77
2021/04/15 02:40:59;;;;;;;;;;;;;;;-4.84;100.00;94462.09;5093599;28;19977;-76
2021/04/15 02:43:31;;;;;;;;;;;;;;;-4.62;100.00;94455.72;5093670;28;19925;-77
2021/04/15 02:45:59;;;;;;;;;;;;;;;-4.81;100.00;94456.00;5093690;28;19924;-75
2021/04/15 02:48:26;;;;;;;;;;;;;;;-4.84;100.00;94452.72;5093179;28;20413;-77
2021/04/15 02:50:56;;;;;;;;;;;;;;;-4.90;100.00;94458.16;5093382;28;19932;-75
2021/04/15 02:53:25;;;;;;;;;;;;;;;-4.98;100.00;94452.69;5093588;28;19932;-76
2021/04/15 02:55:53;;;;;;;;;;;;;;;-5.04;100.00;94453.09;5093505;28;19924;-76
2021/04/15 02:58:22;;;;;;;;;;;;;;;-4.99;100.00;94450.28;5093408;28;20298;-77
2021/04/15 03:00:50;;;;;;;;;;;;;;;-4.96;100.00;94448.38;5093366;28;19939;-76
2021/04/15 03:03:17;;;;;;;;;;;;;;;-5.10;100.00;94443.25;5093259;28;19924;-76
2021/04/15 03:05:45;;;;;;;;;;;;;;;-5.18;100.00;94446.22;5097708;28;19931;-75
2021/04/15 03:08:13;;;;;;;;;;;;;;;-5.06;100.00;94454.91;5097518;28;19925;-77
2021/04/15 03:10:44;;;;;;;;;;;;;;;-5.14;100.00;94447.72;5097377;28;19924;-76
2021/04/15 03:13:14;;;;;;;;;;;;;;;-5.19;100.00;94443.81;5097491;28;19985;-76
2021/04/15 03:15:41;;;;;;;;;;;;;;;-5.08;100.00;94442.28;5097190;28;19928;-76
2021/04/15 03:18:09;;;;;;;;;;;;;;;-5.09;100.00;94450.00;5097477;28;19924;-76
2021/04/15 03:20:37;;;;;;;;;;;;;;;-5.29;100.00;94453.69;5097177;28;19931;-76
2021/04/15 03:23:06;;;;;;;;;;;;;;;-5.27;100.00;94451.88;5097284;28;19924;-76
2021/04/15 03:25:32;;;;;;;;;;;;;;;-5.36;100.00;94453.22;5097122;28;19928;-76
2021/04/15 03:28:00;;;;;;;;;;;;;;;-5.34;100.00;94451.41;5097165;28;19931;-76
2021/04/15 03:30:28;;;;;;;;;;;;;;;-5.49;100.00;94457.38;5096839;28;19924;-77
2021/04/15 03:32:59;;;;;;;;;;;;;;;-5.49;100.00;94448.00;5096949;28;19933;-76
2021/04/15 03:35:27;;;;;;;;;;;;;;;-5.50;100.00;94453.97;5097102;28;19954;-76
2021/04/15 03:37:58;;;;;;;;;;;;;;;-5.55;100.00;94455.97;5096901;28;20371;-76
2021/04/15 03:40:26;;;;;;;;;;;;;;;-5.32;100.00;94451.31;5096772;28;19928;-76
2021/04/15 03:42:54;;;;;;;;;;;;;;;-5.45;100.00;94454.53;5096777;28;19928;-76
2021/04/15 03:45:22;;;;;;;;;;;;;;;-5.34;100.00;94456.50;5096812;28;20016;-76
2021/04/15 03:47:51;;;;;;;;;;;;;;;-5.27;100.00;94447.59;5096581;28;19931;-76
2021/04/15 03:50:19;;;;;;;;;;;;;;;-5.43;100.00;94449.38;5096680;28;19925;-76
2021/04/15 03:52:50;;;;;;;;;;;;;;;-5.31;100.00;94453.78;5096564;28;19931;-77
2021/04/15 03:55:21;;;;;;;;;;;;;;;-5.02;100.00;94451.25;5096323;28;20371;-76
2021/04/15 03:57:49;;;;;;;;;;;;;;;-4.99;100.00;94450.28;5096778;28;19924;-76
2021/04/15 04:00:18;;;;;;;;;;;;;;;-5.08;100.00;94454.16;5096567;28;19931;-75
2021/04/15 04:02:47;;;;;;;;;;;;;;;-5.31;100.00;94456.31;5096569;28;20335;-76
2021/04/15 04:05:17;;;;;;;;;;;;;;;-5.41;100.00;94445.03;5096484;28;19924;-74
2021/04/15 04:07:46;;;;;;;;;;;;;;;-5.49;100.00;94452.28;5096408;28;19969;-76
2021/04/15 04:10:15;;;;;;;;;;;;;;;-5.26;100.00;94446.69;5096455;28;19947;-75
2021/04/15 04:12:44;;;;;;;;;;;;;;;-5.34;100.00;94448.03;5096425;28;19947;-76
2021/04/15 04:15:12;;;;;;;;;;;;;;;-5.47;100.00;94450.47;5095544;28;20010;-77
2021/04/15 04:17:42;;;;;;;;;;;;;;;-5.65;100.00;94460.75;5096178;28;20016;-76
2021/04/15 04:20:09;;;;;;;;;;;;;;;-5.61;100.00;94453.78;5095971;28;20011;-76
2021/04/15 04:22:39;;;;;;;;;;;;;;;-5.38;100.00;94449.91;5096066;28;19924;-76
2021/04/15 04:25:09;;;;;;;;;;;;;;;-5.48;100.00;94453.91;5095962;28;20378;-76
2021/04/15 04:27:37;;;;;;;;;;;;;;;-5.28;100.00;94452.75;5095604;28;19924;-76
2021/04/15 04:30:06;;;;;;;;;;;;;;;-5.41;100.00;94458.56;5095949;28;19925;-76
2021/04/15 04:32:32;;;;;;;;;;;;;;;-5.45;100.00;94453.72;5095905;28;19928;-76
2021/04/15 04:35:00;;;;;;;;;;;;;;;-5.48;100.00;94458.97;5095922;28;19924;-76
2021/04/15 04:37:45;;;;;;;;;;;;;;;-5.45;100.00;94459.63;5096041;28;19924;-76
2021/04/15 04:40:15;;;;;;;;;;;;;;;-5.18;100.00;94451.31;5095885;28;19924;-76
2021/04/15 04:42:42;;;;;;;;;;;;;;;-5.27;100.00;94457.75;5095644;28;19932;-76
2021/04/15 04:45:09;;;;;;;;;;;;;;;-5.36;100.00;94467.66;5095620;28;19931;-77
2021/04/15 04:47:41;;;;;;;;;;;;;;;-5.45;100.00;94462.16;5095571;28;19950;-77
2021/04/15 04:50:08;;;;;;;;;;;;;;;-5.49;100.00;94470.09;5095663;28;19978;-76
2021/04/15 04:52:35;;;;;;;;;;;;;;;-5.53;100.00;94464.31;5095380;28;20302;-75
2021/04/15 04:55:07;;;;;;;;;;;;;;;-5.38;100.00;94467.72;5095452;28;19927;-77
2021/04/15 04:57:36;;;;;;;;;;;;;;;-5.29;100.00;94464.69;5095437;28;19924;-77
2021/04/15 05:00:07;;;;;;;;;;;;;;;-5.37;100.00;94471.91;5095230;28;19932;-76
2021/04/15 05:02:33;;;;;;;;;;;;;;;-5.45;100.00;94471.53;5095504;28;19931;-77
2021/04/15 05:05:04;;;;;;;;;;;;;;;-5.44;100.00;94480.81;5095265;28;19924;-77
2021/04/15 05:07:32;;;;;;;;;;;;;;;-5.42;100.00;94479.00;5095325;28;19964;-77
2021/04/15 05:09:58;;;;;;;;;;;;;;;-5.34;100.00;94479.38;5094969;28;20291;-77
2021/04/15 05:12:26;;;;;;;;;;;;;;;-5.19;100.00;94476.88;5095008;28;19924;-77
2021/04/15 05:14:54;;;;;;;;;;;;;;;-5.17;100.00;94475.88;5094909;28;20357;-76
2021/04/15 05:17:25;;;;;;;;;;;;;;;-4.97;100.00;94469.63;5095214;28;19986;-77
2021/04/15 05:19:51;;;;;;;;;;;;;;;-4.89;100.00;94477.63;5094991;28;19924;-76
2021/04/15 05:22:22;;;;;;;;;;;;;;;-4.82;100.00;94474.75;5094840;28;19924;-77
2021/04/15 05:24:49;;;;;;;;;;;;;;;-4.72;100.00;94480.94;5094767;28;20019;-76
2021/04/15 05:27:17;;;;;;;;;;;;;;;-4.68;100.00;94492.56;5094025;28;19924;-76
2021/04/15 05:29:44;;;;;;;;;;;;;;;-4.70;100.00;94489.28;5094895;28;19932;-77
2021/04/15 05:32:12;;;;;;;;;;;;;;;-4.62;100.00;94491.41;5095077;28;19928;-77
2021/04/15 05:34:40;;;;;;;;;;;;;;;-4.56;100.00;94494.41;5094801;28;19936;-77
2021/04/15 05:37:10;;;;;;;;;;;;;;;-4.48;100.00;94496.47;5094614;28;19923;-77
2021/04/15 05:39:36;;;;;;;;;;;;;;;-4.44;100.00;94492.03;5094482;28;20018;-77
2021/04/15 05:42:05;;;;;;;;;;;;;;;-4.37;100.00;94493.28;5094701;28;19936;-77
2021/04/15 05:44:34;;;;;;;;;;;;;;;-4.23;100.00;94493.28;5094587;28;19969;-76
2021/04/15 05:47:02;;;;;;;;;;;;;;;-4.05;100.00;94496.41;5094369;28;20311;-76
2021/04/15 05:49:31;;;;;;;;;;;;;;;-3.92;100.00;94499.84;5094345;28;20492;-77
2021/04/15 05:52:01;;;;;;;;;;;;;;;-3.78;100.00;94490.53;5094163;28;20349;-77
2021/04/15 05:54:28;;;;;;;;;;;;;;;-3.63;100.00;94498.94;5094609;28;20018;-76
2021/04/15 05:56:59;;;;;;;;;;;;;;;-3.46;100.00;94496.16;5094376;28;19924;-77
2021/04/15 05:59:28;;;;;;;;;;;;;;;-3.41;100.00;94506.91;5094194;28;20450;-77
2021/04/15 06:02:06;;;;;;;;;;;;;;;-3.36;100.00;94502.31;5094193;28;20007;-77
2021/04/15 06:04:36;;;;;;;;;;;;;;;-3.22;100.00;94503.16;5094052;28;20430;-77
2021/04/15 06:07:03;;;;;;;;;;;;;;;-3.11;100.00;94500.75;5094214;28;20024;-76
2021/04/15 06:09:30;;;;;;;;;;;;;;;-2.96;100.00;94493.81;5093929;28;20386;-76
2021/04/15 06:12:01;;;;;;;;;;;;;;;-2.79;100.00;94490.13;5093978;28;20374;-76
2021/04/15 06:14:31;;;;;;;;;;;;;;;-2.61;100.00;94495.78;5093931;28;19924;-76
2021/04/15 06:17:16;;;;;;;;;;;;;;;-2.51;100.00;94498.53;5093802;28;19924;-76
2021/04/15 06:19:44;;;;;;;;;;;;;;;-2.46;100.00;94502.41;5094031;28;20006;-76
2021/04/15 06:22:12;;;;;;;;;;;;;;;-2.45;100.00;94498.09;5093993;28;19924;-76
2021/04/15 06:24:40;;;;;;;;;;;;;;;-2.44;100.00;94494.63;5093750;28;20023;-77
2021/04/15 06:27:07;;;;;;;;;;;;;;;-2.43;100.00;94504.75;5093785;28;19931;-76
2021/04/15 06:29:39;;;;;;;;;;;;;;;-2.47;100.00;94510.97;5093584;28;19931;-76
2021/04/15 06:32:06;;;;;;;;;;;;;;;-2.48;100.00;94503.41;5093660;28;19930;-76
2021/04/15 06:34:32;;;;;;;;;;;;;;;-2.39;100.00;94494.31;5091602;28;20285;-77
2021/04/15 06:37:04;;;;;;;;;;;;;;;-2.32;100.00;94500.66;5093703;28;19930;-76
2021/04/15 06:39:32;;;;;;;;;;;;;;;-2.31;100.00;94499.75;5093264;28;19924;-77
2021/04/15 06:42:17;;;;;;;;;;;;;;;-2.21;100.00;94499.91;5093311;28;19963;-76
2021/04/15 06:44:53;;;;;;;;;;;;;;;-2.09;100.00;94507.56;5093855;28;20001;-76
2021/04/15 06:47:39;;;;;;;;;;;;;;;-1.85;100.00;94506.78;5093442;28;19924;-76
2021/04/15 06:50:12;;;;;;;;;;;;;;;-1.78;100.00;94509.72;5063075;28;21331;-76
2021/04/15 06:52:46;;;;;;;;;;;;;;;-1.65;100.00;94510.50;5093636;28;19928;-76
2021/04/15 06:55:20;;;;;;;;;;;;;;;-1.43;100.00;94496.19;5093515;28;19985;-77
2021/04/15 06:57:53;;;;;;;;;;;;;;;-1.28;100.00;94501.94;5093665;28;19924;-77
2021/04/15 07:00:28;;;;;;;;;;;;;;;-1.31;100.00;94501.25;5093449;28;19931;-77
2021/04/15 07:03:10;;;;;;;;;;;;;;;-1.32;100.00;94498.78;5093371;28;19924;-76
2021/04/15 07:05:42;;;;;;;;;;;;;;;-1.22;100.00;94502.31;5091841;28;19959;-76
2021/04/15 07:08:15;;;;;;;;;;;;;;;-1.19;100.00;94494.41;5093514;28;19925;-77
2021/04/15 07:10:51;;;;;;;;;;;;;;;-0.91;100.00;94494.97;5093224;28;19924;-77
2021/04/15 07:13:36;;;;;;;;;;;;;;;-0.88;100.00;94489.63;5093125;28;19924;-77
2021/04/15 07:16:37;;;;;;;;;;;;;;;-0.81;100.00;94493.38;5093456;28;20321;-77
2021/04/15 07:19:27;;;;;;;;;;;;;;;-0.73;100.00;94487.69;5030822;28;19964;-76
2021/04/15 07:22:08;;;;;;;;;;;;;;;-0.60;100.00;94487.56;5030768;28;20004;-76
2021/04/15 07:24:43;;;;;;;;;;;;;;;-0.51;100.00;94488.66;5072740;28;19924;-77
2021/04/15 07:27:36;;;;;;;;;;;;;;;-0.48;100.00;94484.09;5093139;28;20395;-76
2021/04/15 07:30:19;;;;;;;;;;;;;;;-0.17;100.00;94489.44;5056469;28;20371;-76
2021/04/15 07:33:04;;;;;;;;;;;;;;;-0.16;100.00;94491.09;5093319;28;19925;-76
2021/04/15 07:35:47;;;;;;;;;;;;;;;0.04;100.00;94488.75;5093061;28;19924;-76
2021/04/15 07:38:22;;;;;;;;;;;;;;;0.25;100.00;94492.22;5093230;28;19924;-75
2021/04/15 07:41:01;;;;;;;;;;;;;;;0.22;100.00;94492.47;5093268;28;19924;-77
2021/04/15 07:43:44;;;;;;;;;;;;;;;0.32;100.00;94495.94;5093093;28;20026;-77
2021/04/15 07:46:14;;;;;;;;;;;;;;;0.48;100.00;94492.16;5092733;28;20378;-77
2021/04/15 07:49:01;;;;;;;;;;;;;;;0.59;100.00;94493.88;5092659;28;19931;-76
2021/04/15 07:51:41;;;;;;;;;;;;;;;0.61;100.00;94497.94;5068712;28;20000;-76
2021/04/15 07:54:16;;;;;;;;;;;;;;;0.70;100.00;94492.09;5096807;28;20264;-76
2021/04/15 07:56:53;;;;;;;;;;;;;;;0.65;100.00;94498.50;5096545;28;20023;-77
2021/04/15 07:59:30;;;;;;;;;;;;;;;0.49;100.00;94498.94;5096791;28;19959;-78
2021/04/15 08:02:08;;;;;;;;;;;;;;;0.67;100.00;94500.03;5096721;28;19928;-77
2021/04/15 08:04:59;;;;;;;;;;;;;;;0.72;100.00;94495.34;5096596;28;19924;-77
2021/04/15 08:07:42;;;;;;;;;;;;;;;0.68;100.00;94501.69;5096355;28;20389;-77
2021/04/15 08:10:26;;;;;;;;;;;;;;;0.39;100.00;94503.97;5093960;28;19924;-77
2021/04/15 08:13:11;;;;;;;;;;;;;;;0.47;100.00;94506.75;5096161;28;20452;-76
2021/04/15 08:15:44;;;;;;;;;;;;;;;0.84;100.00;94498.69;5096304;28;19985;-77
2021/04/15 08:18:18;;;;;;;;;;;;;;;0.72;100.00;94500.50;5096499;28;19925;-76
2021/04/15 08:20:59;;;;;;;;;;;;;;;0.61;100.00;94502.28;5096109;28;19924;-75
2021/04/15 08:23:52;;;;;;;;;;;;;;;0.44;100.00;94512.13;5096083;28;19928;-77
2021/04/15 08:26:36;;;;;;;;;;;;;;;0.95;100.00;94505.56;5095977;28;19978;-77
2021/04/15 08:29:09;;;;;;;;;;;;;;;1.17;100.00;94520.03;5096085;28;19931;-77
2021/04/15 08:31:47;;;;;;;;;;;;;;;1.12;100.00;94506.75;5095954;28;20429;-77
2021/04/15 08:34:20;;;;;;;;;;;;;;;0.64;100.00;94518.25;5095136;28;20310;-76
2021/04/15 08:37:04;;;;;;;;;;;;;;;0.75;100.00;94514.84;5093677;28;19930;-76
2021/04/15 08:39:35;;;;;;;;;;;;;;;0.81;100.00;94516.91;5095973;28;19947;-77
2021/04/15 08:42:23;;;;;;;;;;;;;;;0.89;100.00;94516.31;5095836;28;19924;-77
2021/04/15 08:44:58;;;;;;;;;;;;;;;1.10;100.00;94514.59;5095717;28;20010;-77
2021/04/15 08:47:33;;;;;;;;;;;;;;;1.22;100.00;94507.63;5095629;28;19924;-76
2021/04/15 08:50:08;;;;;;;;;;;;;;;1.74;100.00;94512.78;5095560;28;20371;-78
2021/04/15 08:52:39;;;;;;;;;;;;;;;1.84;100.00;94502.53;5095658;28;20375;-76
2021/04/15 08:55:15;;;;;;;;;;;;;;;1.91;100.00;94508.00;5095609;28;19977;-76
2021/04/15 08:57:45;;;;;;;;;;;;;;;2.37;100.00;94511.81;5095709;28;19924;-76
2021/04/15 09:00:18;;;;;;;;;;;;;;;2.59;100.00;94509.00;5095532;28;19977;-77
2021/04/15 09:02:50;;;;;;;;;;;;;;;2.87;100.00;94514.31;5095156;28;19972;-77
2021/04/15 09:05:35;;;;;;;;;;;;;;;2.75;95.33;94515.41;5095361;28;19924;-76
2021/04/15 09:08:05;;;;;;;;;;;;;;;2.69;91.18;94508.19;5095409;28;20371;-76
2021/04/15 09:10:37;;;;;;;;;;;;;;;2.55;88.84;94507.66;5095390;28;19925;-76
2021/04/15 09:13:14;;;;;;;;;;;;;;;2.62;87.80;94505.34;5095276;28;19934;-77
2021/04/15 09:15:47;;;;;;;;;;;;;;;2.57;80.80;94508.31;5095307;28;19930;-77
2021/04/15 09:18:18;;;;;;;;;;;;;;;2.32;83.06;94506.25;5095239;28;19935;-77
2021/04/15 09:20:49;;;;;;;;;;;;;;;2.28;85.69;94507.44;5095308;28;19924;-77
2021/04/15 09:23:26;;;;;;;;;;;;;;;2.20;79.42;94511.50;5095380;28;20007;-77
2021/04/15 09:25:59;;;;;;;;;;;;;;;2.15;80.87;94507.66;5095231;28;19935;-78
2021/04/15 09:28:32;;;;;;;;;;;;;;;2.24;85.24;94503.50;5095021;28;20474;-77
2021/04/15 09:31:07;;;;;;;;;;;;;;;2.26;88.43;94505.00;5094791;28;19981;-78
2021/04/15 09:33:46;;;;;;;;;;;;;;;2.29;86.18;94512.47;5094837;28;19928;-77
2021/04/15 09:36:21;;;;;;;;;;;;;;;2.32;86.78;94514.78;5094911;28;19973;-77
2021/04/15 09:39:00;;;;;;;;;;;;;;;2.43;86.41;94513.03;5094834;28;20296;-77
2021/04/15 09:41:41;;;;;;;;;;;;;;;2.45;85.87;94506.81;5094975;28;19935;-77
2021/04/15 09:44:24;;;;;;;;;;;;;;;2.64;88.90;94515.53;5094876;28;19924;-75
2021/04/15 09:46:55;;;;;;;;;;;;;;;2.91;84.76;94510.50;5094189;28;19924;-77
2021/04/15 09:49:27;;;;;;;;;;;;;;;3.19;83.72;94520.16;5094397;28;19928;-78
2021/04/15 09:52:17;;;;;;;;;;;;;;;3.28;83.83;94509.84;5094624;28;19925;-78
2021/04/15 09:54:54;;;;;;;;;;;;;;;3.28;81.30;94504.69;5079039;28;19925;-77
2021/04/15 09:57:29;;;;;;;;;;;;;;;3.50;84.23;94500.97;5094411;28;19924;-76
2021/04/15 10:00:11;;;;;;;;;;;;;;;3.61;82.19;94499.97;5094184;28;19924;-76
2021/04/15 10:02:41;;;;;;;;;;;;;;;3.68;83.95;94498.50;5094457;28;19973;-76
2021/04/15 10:05:10;;;;;;;;;;;;;;;3.66;83.32;94500.41;5094120;28;20371;-77
2021/04/15 10:07:41;;;;;;;;;;;;;;;3.65;84.33;94498.75;5093929;28;20271;-77
2021/04/15 10:10:13;;;;;;;;;;;;;;;3.47;82.15;94503.03;5094106;28;19924;-76
2021/04/15 10:12:47;;;;;;;;;;;;;;;3.55;82.08;94495.41;5094214;28;19928;-76
2021/04/15 10:15:27;;;;;;;;;;;;;;;3.68;80.87;94502.81;5093735;28;19935;-77
2021/04/15 10:18:06;;;;;;;;;;;;;;;3.47;77.32;94503.81;5094191;28;19935;-77
2021/04/15 10:20:55;;;;;;;;;;;;;;;3.33;76.43;94496.50;5094001;28;19966;-77
2021/04/15 10:23:35;;;;;;;;;;;;;;;3.38;72.20;94499.50;5094298;28;19924;-78
2021/04/15 10:26:09;;;;;;;;;;;;;;;3.58;70.43;94489.97;5091433;28;20031;-76
2021/04/15 10:28:47;;;;;;;;;;;;;;;3.68;73.60;94490.75;5093896;28;19931;-75
2021/04/15 10:31:24;;;;;;;;;;;;;;;3.84;70.98;94489.31;5093855;28;19932;-76
2021/04/15 10:34:08;;;;;;;;;;;;;;;3.64;74.10;94491.16;5093997;28;19924;-77
2021/04/15 10:36:48;;;;;;;;;;;;;;;3.88;73.37;94482.91;5082970;28;19963;-76
2021/04/15 10:39:28;;;;;;;;;;;;;;;4.00;75.23;94483.56;5090800;28;19924;-77
2021/04/15 10:42:13;;;;;;;;;;;;;;;4.13;73.90;94486.63;5093228;28;19951;-77
2021/04/15 10:44:50;;;;;;;;;;;;;;;4.18;75.87;94486.19;5083926;28;19924;-77
2021/04/15 10:47:30;;;;;;;;;;;;;;;4.67;76.00;94481.56;5093413;28;20367;-76
2021/04/15 10:50:01;;;;;;;;;;;;;;;5.01;74.30;94483.47;5093363;28;20286;-77
2021/04/15 10:52:46;;;;;;;;;;;;;;;5.57;71.09;94484.06;5093813;28;19931;-77
2021/04/15 10:55:17;;;;;;;;;;;;;;;5.48;68.48;94482.38;5093544;28;20375;-76
2021/04/15 10:57:43;;;;;;;;;;;;;;;5.05;68.16;94477.06;5093371;28;19972;-77
2021/04/15 11:00:25;;;;;;;;;;;;;;;4.92;69.35;94479.22;5093553;28;19924;-76
2021/04/15 11:02:51;;;;;;;;;;;;;;;5.10;68.90;94482.59;5093737;28;19925;-77
2021/04/15 11:05:21;;;;;;;;;;;;;;;4.96;67.76;94471.00;5093400;28;19924;-76
2021/04/15 11:07:49;;;;;;;;;;;;;;;5.64;65.95;94473.91;5093525;28;19931;-76
2021/04/15 11:10:21;;;;;;;;;;;;;;;5.66;65.96;94461.63;5093250;28;19931;-76
2021/04/15 11:12:48;;;;;;;;;;;;;;;5.77;65.69;94463.16;5093496;28;20283;-76
2021/04/15 11:15:22;;;;;;;;;;;;;;;5.97;67.41;94459.38;5093378;28;19931;-77
2021/04/15 11:17:48;;;;;;;;;;;;;;;6.26;60.11;94468.56;5093419;28;19969;-77
2021/04/15 11:20:25;;;;;;;;;;;;;;;5.98;58.33;94468.78;5093352;28;19924;-75
2021/04/15 11:22:54;;;;;;;;;;;;;;;6.55;59.86;94467.38;5093395;28;19924;-76
2021/04/15 11:25:29;;;;;;;;;;;;;;;6.74;57.83;94469.69;5094871;28;19924;-76
2021/04/15 11:28:00;;;;;;;;;;;;;;;7.25;57.42;94466.97;5097248;28;20288;-76
2021/04/15 11:30:32;;;;;;;;;;;;;;;7.00;54.04;94466.97;5097276;28;20408;-77
2021/04/15 11:32:57;;;;;;;;;;;;;;;6.38;54.16;94462.16;5097247;28;19954;-76
2021/04/15 11:35:27;;;;;;;;;;;;;;;6.62;52.02;94469.16;5097115;28;20423;-76
2021/04/15 11:38:05;;;;;;;;;;;;;;;6.93;51.04;94470.34;5096853;28;19964;-76
2021/04/15 11:40:35;;;;;;;;;;;;;;;7.15;49.43;94453.34;5097155;28;19924;-77
2021/04/15 11:43:02;;;;;;;;;;;;;;;7.25;53.23;94458.38;5097011;28;19963;-76
2021/04/15 11:45:32;;;;;;;;;;;;;;;7.01;50.60;94463.41;5096943;28;19930;-76
2021/04/15 11:48:15;;;;;;;;;;;;;;;7.52;51.54;94450.22;5097063;28;19924;-75
2021/04/15 11:50:41;;;;;;;;;;;;;;;7.94;48.41;94458.75;5096727;28;19924;-76
2021/04/15 11:53:37;;;;;;;;;;;;;;;7.56;53.15;94454.13;5096879;28;19928;-76
2021/04/15 11:56:25;;;;;;;;;;;;;;;7.70;49.75;94452.63;5054223;28;19936;-75
2021/04/15 11:58:51;;;;;;;;;;;;;;;8.26;52.50;94454.41;5092911;28;19925;-76
2021/04/15 12:01:24;;;;;;;;;;;;;;;7.87;47.76;94452.59;5096750;28;19970;-75
2021/04/15 12:03:58;;;;;;;;;;;;;;;7.86;46.09;94450.97;5096460;28;19925;-75
2021/04/15 12:06:25;;;;;;;;;;;;;;;7.88;48.26;94444.63;5096499;28;19924;-75
2021/04/15 12:08:53;;;;;;;;;;;;;;;7.99;44.10;94451.25;5096591;28;19977;-76
2021/04/15 12:11:26;;;;;;;;;;;;;;;7.60;44.72;94441.59;5096243;28;19925;-75
2021/04/15 12:13:55;;;;;;;;;;;;;;;7.96;44.82;94438.59;5096484;28;19934;-76
2021/04/15 12:16:22;;;;;;;;;;;;;;;7.28;46.48;94438.09;5096364;28;19931;-75
2021/04/15 12:18:51;;;;;;;;;;;;;;;7.90;45.41;94436.66;5095528;28;19924;-76
2021/04/15 12:21:20;;;;;;;;;;;;;;;8.15;42.32;94445.19;5096236;28;19924;-78
2021/04/15 12:23:48;;;;;;;;;;;;;;;8.57;44.23;94435.44;5095769;28;19930;-76
2021/04/15 12:26:18;;;;;;;;;;;;;;;8.85;41.94;94441.75;5096264;28;19932;-76
2021/04/15 12:28:51;;;;;;;;;;;;;;;8.87;41.25;94442.38;5096440;28;19947;-76
2021/04/15 12:31:20;;;;;;;;;;;;;;;8.92;40.82;94431.44;5096067;28;19931;-76
2021/04/15 12:33:48;;;;;;;;;;;;;;;9.20;38.44;94433.53;5095946;28;19981;-77
2021/04/15 12:36:16;;;;;;;;;;;;;;;9.12;41.55;94425.78;5095240;28;19925;-76
2021/04/15 12:38:51;;;;;;;;;;;;;;;9.00;40.05;94420.19;5095960;28;20018;-75
2021/04/15 12:41:17;;;;;;;;;;;;;;;8.49;41.01;94426.69;5095393;28;20341;-76
2021/04/15 12:43:47;;;;;;;;;;;;;;;8.06;40.47;94430.59;5095819;28;19928;-76
2021/04/15 12:46:17;;;;;;;;;;;;;;;8.15;41.71;94419.19;5095650;28;19928;-76
2021/04/15 12:48:45;;;;;;;;;;;;;;;8.40;45.39;94411.25;5095282;28;19935;-76
2021/04/15 12:51:12;;;;;;;;;;;;;;;9.51;42.90;94409.97;5095737;28;20024;-76
2021/04/15 12:53:41;;;;;;;;;;;;;;;10.35;38.95;94406.28;5095449;28;19930;-77
2021/04/15 12:56:07;;;;;;;;;;;;;;;9.33;45.03;94414.72;5095747;28;20340;-76
2021/04/15 12:58:33;;;;;;;;;;;;;;;7.68;46.71;94413.00;5095469;28;19935;-76
2021/04/15 13:01:02;;;;;;;;;;;;;;;6.12;51.25;94418.13;5095490;28;19924;-78
2021/04/15 13:03:30;;;;;;;;;;;;;;;5.57;57.34;94422.72;5095291;28;19924;-78
2021/04/15 13:06:01;;;;;;;;;;;;;;;5.06;58.67;94419.16;5095438;28;19931;-77
2021/04/15 13:08:36;;;;;;;;;;;;;;;4.89;61.85;94420.00;5095337;28;19970;-78